METAR Data
IDs: Format: Raw Decoded Include TAF

Data at: 0205 UTC 25 Feb 2021

KEMT 250150Z 22004KT 10SM CLR 19/08 A2998